Time;durP1;ratioP1;P1;durP2;ratioP2;P2;SDS_P1;SDS_P2;PMS_P1;PMS_P2;Temp;Humidity;BMP_temperature;BMP_pressure;BME280_temperature;BME280_humidity;BME280_pressure;Samples;Min_cycle;Max_cycle;Signal;HPM_P1;HPM_P2
2022/04/17 00:00:09;;;;;;;1.67;1.55;;;;;;;13.22;100.00;100227.63;5070201;28;20685;-76
2022/04/17 00:02:36;;;;;;;2.47;2.28;;;;;;;13.03;100.00;100207.47;5070332;28;20210;-76
2022/04/17 00:05:04;;;;;;;2.05;1.88;;;;;;;13.03;100.00;100208.34;5070402;28;20253;-77
2022/04/17 00:07:31;;;;;;;3.90;2.50;;;;;;;12.70;100.00;100153.47;5069818;28;20199;-77
2022/04/17 00:09:58;;;;;;;2.60;2.40;;;;;;;13.11;100.00;100219.72;5070315;28;20194;-77
2022/04/17 00:12:26;;;;;;;2.03;1.85;;;;;;;13.27;100.00;100236.34;5069942;28;20199;-76
2022/04/17 00:14:55;;;;;;;2.17;2.00;;;;;;;13.19;100.00;100231.06;5069770;28;20735;-76
2022/04/17 00:17:23;;;;;;;2.80;2.60;;;;;;;13.07;100.00;100240.47;5073806;28;20201;-78
2022/04/17 00:19:50;;;;;;;3.30;1.95;;;;;;;13.08;100.00;100248.31;5074286;28;20206;-77
2022/04/17 00:22:16;;;;;;;2.38;2.03;;;;;;;13.04;100.00;100246.53;5068878;28;20204;-78
2022/04/17 00:24:43;;;;;;;4.90;2.30;;;;;;;13.04;100.00;100243.94;5073956;28;20950;-77
2022/04/17 00:27:10;;;;;;;2.40;2.20;;;;;;;13.09;100.00;100242.25;5074176;28;20195;-76
2022/04/17 00:29:37;;;;;;;2.55;2.35;;;;;;;13.08;100.00;100222.28;5074102;28;20211;-75
2022/04/17 00:32:06;;;;;;;5.18;2.65;;;;;;;13.19;100.00;100236.28;5073927;28;20195;-76
2022/04/17 00:34:34;;;;;;;3.13;2.72;;;;;;;13.23;100.00;100232.84;5073597;28;20262;-76
2022/04/17 00:37:00;;;;;;;2.95;2.75;;;;;;;13.18;100.00;100215.44;5073912;28;20939;-76
2022/04/17 00:39:28;;;;;;;2.65;2.47;;;;;;;13.26;100.00;100232.84;5073759;28;20199;-76
2022/04/17 00:41:55;;;;;;;5.72;2.67;;;;;;;13.00;100.00;100197.91;5029131;28;20223;-77
2022/04/17 00:44:21;;;;;;;3.30;2.65;;;;;;;13.15;100.00;100233.63;5073285;28;20194;-76
2022/04/17 00:46:48;;;;;;;3.00;2.60;;;;;;;13.24;100.00;100239.78;5073923;28;20199;-76
2022/04/17 00:49:17;;;;;;;2.70;2.53;;;;;;;13.31;100.00;100241.56;5073911;28;20210;-76
2022/04/17 00:51:47;;;;;;;10.70;2.67;;;;;;;13.23;100.00;100248.47;5073496;28;20187;-76
2022/04/17 00:54:15;;;;;;;2.63;2.42;;;;;;;13.16;100.00;100241.44;5073530;28;20214;-77
2022/04/17 00:56:42;;;;;;;2.22;2.10;;;;;;;13.11;100.00;100242.28;5072722;28;20725;-76
2022/04/17 00:59:10;;;;;;;6.28;2.85;;;;;;;13.11;100.00;100237.94;5073745;28;20199;-76
2022/04/17 01:01:38;;;;;;;3.33;2.67;;;;;;;13.13;100.00;100241.44;5073181;28;20294;-77
2022/04/17 01:04:05;;;;;;;3.55;2.25;;;;;;;13.10;100.00;100232.72;5073505;28;20213;-77
2022/04/17 01:06:34;;;;;;;4.72;2.97;;;;;;;12.95;100.00;100243.00;5073460;28;20260;-76
2022/04/17 01:09:03;;;;;;;4.10;2.65;;;;;;;12.55;100.00;100249.59;5059147;28;20199;-76
2022/04/17 01:11:31;;;;;;;2.60;1.77;;;;;;;12.15;100.00;100243.09;5054518;28;20202;-76
2022/04/17 01:13:59;;;;;;;3.92;1.73;;;;;;;11.96;100.00;100242.00;5034378;28;20206;-76
2022/04/17 01:16:27;;;;;;;3.65;1.92;;;;;;;11.69;100.00;100213.06;5060176;28;20229;-76
2022/04/17 01:18:57;;;;;;;1.80;1.67;;;;;;;11.72;100.00;100223.53;5017771;28;20257;-76
2022/04/17 01:21:26;;;;;;;3.35;1.83;;;;;;;11.42;100.00;100224.81;5068664;28;20207;-76
2022/04/17 01:29:22;;;;;;;2.05;1.95;;;;;;;11.39;100.00;100236.91;5060466;28;20302;-76
2022/04/17 01:31:50;;;;;;;14.07;2.30;;;;;;;11.33;100.00;100229.91;5072505;28;20211;-77
2022/04/17 01:34:17;;;;;;;5.35;2.50;;;;;;;11.31;100.00;100233.31;5072961;28;20880;-77
2022/04/17 01:36:46;;;;;;;3.63;1.75;;;;;;;11.20;100.00;100235.75;5072601;28;20234;-75
2022/04/17 01:39:14;;;;;;;6.53;1.77;;;;;;;10.80;100.00;100202.28;5072767;28;20203;-77
2022/04/17 01:41:41;;;;;;;2.88;2.17;;;;;;;10.85;100.00;100196.31;5072459;28;20272;-75
2022/04/17 01:44:08;;;;;;;5.53;2.00;;;;;;;11.12;100.00;100229.59;5072751;28;20191;-75
2022/04/17 01:46:36;;;;;;;3.55;1.73;;;;;;;10.92;100.00;100238.78;5072233;28;20198;-75
2022/04/17 01:49:03;;;;;;;2.20;2.00;;;;;;;10.72;100.00;100220.31;5072919;28;20191;-76
2022/04/17 01:51:37;;;;;;;3.20;1.85;;;;;;;10.88;100.00;100229.19;5072434;28;20683;-77
2022/04/17 01:54:06;;;;;;;3.83;2.58;;;;;;;10.93;100.00;100222.38;5073116;28;20234;-76
2022/04/17 01:56:33;;;;;;;2.38;2.15;;;;;;;10.94;100.00;100224.13;5072303;28;20309;-77
2022/04/17 01:59:00;;;;;;;9.88;2.40;;;;;;;10.77;100.00;100222.97;5072671;28;20202;-76
2022/04/17 02:01:27;;;;;;;1.83;1.67;;;;;;;10.59;100.00;100222.66;5072675;28;20214;-77
2022/04/17 02:03:54;;;;;;;1.55;1.45;;;;;;;10.62;100.00;100223.59;5072254;28;20213;-77
2022/04/17 02:06:21;;;;;;;1.80;1.70;;;;;;;10.56;100.00;100227.81;5072259;28;20203;-76
2022/04/17 02:08:48;;;;;;;1.35;1.35;;;;;;;10.53;100.00;100222.53;5071564;28;20214;-76
2022/04/17 02:11:16;;;;;;;2.38;2.17;;;;;;;10.39;100.00;100224.91;5072567;28;20198;-77
2022/04/17 02:13:42;;;;;;;1.30;1.30;;;;;;;10.30;100.00;100223.03;5071780;28;20252;-76
2022/04/17 02:16:09;;;;;;;3.83;1.70;;;;;;;10.29;100.00;100229.06;5071698;28;20226;-77
2022/04/17 02:18:36;;;;;;;4.90;2.63;;;;;;;10.37;100.00;100224.88;5071482;28;20563;-76
2022/04/17 02:21:03;;;;;;;1.55;1.45;;;;;;;9.86;100.00;100157.41;5072141;28;20598;-75
2022/04/17 02:23:30;;;;;;;1.80;1.70;;;;;;;10.34;100.00;100236.91;5071500;28;20607;-77
2022/04/17 02:25:56;;;;;;;2.17;1.92;;;;;;;10.37;100.00;100236.97;5071740;28;20211;-77
2022/04/17 02:28:24;;;;;;;6.28;2.33;;;;;;;10.22;100.00;100234.97;5070483;28;20215;-77
2022/04/17 02:30:51;;;;;;;9.65;1.73;;;;;;;10.24;100.00;100232.38;5071495;28;20199;-76
2022/04/17 02:33:18;;;;;;;5.50;2.13;;;;;;;10.16;100.00;100241.75;5071674;28;20195;-77
2022/04/17 02:35:45;;;;;;;13.45;1.70;;;;;;;10.14;100.00;100245.97;5070991;28;20230;-77
2022/04/17 02:38:14;;;;;;;5.25;2.17;;;;;;;10.12;100.00;100245.97;5070836;28;20210;-77
2022/04/17 02:40:42;;;;;;;5.93;2.08;;;;;;;10.05;100.00;100232.88;5071390;28;20202;-77
2022/04/17 02:43:09;;;;;;;8.05;2.13;;;;;;;10.08;100.00;100246.75;5071200;28;20208;-75
2022/04/17 02:45:37;;;;;;;12.50;2.13;;;;;;;9.94;100.00;100236.13;5071157;28;20191;-76
2022/04/17 02:48:04;;;;;;;2.05;1.85;;;;;;;10.08;100.00;100264.88;5033926;28;20601;-77
2022/04/17 02:50:32;;;;;;;3.67;1.95;;;;;;;9.83;100.00;100245.38;5070803;28;20195;-76
2022/04/17 02:52:59;;;;;;;1.98;1.75;;;;;;;9.79;100.00;100225.44;5070833;28;20213;-78
2022/04/17 02:55:25;;;;;;;2.05;1.95;;;;;;;9.90;100.00;100259.34;5071136;28;20276;-77
2022/04/17 02:57:54;;;;;;;3.47;2.00;;;;;;;9.93;100.00;100261.97;5070671;28;20199;-76
2022/04/17 03:00:21;;;;;;;3.65;1.50;;;;;;;9.80;100.00;100257.41;5036090;28;20667;-76
2022/04/17 03:05:39;;;;;;;3.85;1.60;;;;;;;9.64;100.00;100226.84;5071277;28;20206;-76
2022/04/17 03:08:08;;;;;;;3.05;2.05;;;;;;;9.87;100.00;100251.50;5070419;28;20229;-76
2022/04/17 03:10:36;;;;;;;7.43;2.38;;;;;;;9.97;100.00;100263.78;5070389;28;20195;-76
2022/04/17 03:13:03;;;;;;;2.85;1.70;;;;;;;9.65;100.00;100237.25;5070656;28;20202;-77
2022/04/17 03:15:29;;;;;;;10.52;1.55;;;;;;;9.60;100.00;100269.91;5070864;28;20226;-76
2022/04/17 03:17:58;;;;;;;4.53;2.17;;;;;;;9.70;100.00;100269.25;5070824;28;20194;-77
2022/04/17 03:20:25;;;;;;;9.55;1.95;;;;;;;9.50;100.00;100272.25;5070451;28;20249;-76
2022/04/17 03:22:52;;;;;;;3.13;2.20;;;;;;;9.21;100.00;100220.75;5070762;28;20206;-76
2022/04/17 03:25:20;;;;;;;2.20;2.10;;;;;;;9.45;100.00;100272.19;5070714;28;20202;-76
2022/04/17 03:27:47;;;;;;;17.40;2.38;;;;;;;9.33;100.00;100265.00;5070473;28;20221;-76
2022/04/17 03:30:16;;;;;;;7.93;3.25;;;;;;;9.24;100.00;100245.81;5070176;28;20713;-76
2022/04/17 03:32:43;;;;;;;3.17;1.73;;;;;;;9.18;100.00;100256.00;5070661;28;20222;-76
2022/04/17 03:35:13;;;;;;;2.30;2.20;;;;;;;9.41;100.00;100283.31;5070654;28;20702;-77
2022/04/17 03:37:42;;;;;;;8.82;2.35;;;;;;;8.96;100.00;100247.75;5071026;28;20190;-76
2022/04/17 03:40:10;;;;;;;9.95;2.58;;;;;;;8.97;100.00;100258.97;5051687;28;21009;-78
2022/04/17 03:42:37;;;;;;;3.55;2.42;;;;;;;9.02;100.00;100288.41;5070084;28;20290;-77
2022/04/17 03:45:05;;;;;;;3.58;2.58;;;;;;;8.91;100.00;100287.28;5017992;28;20268;-76
2022/04/17 03:47:32;;;;;;;6.25;3.55;;;;;;;8.80;100.00;100280.97;5069792;28;20581;-76
2022/04/17 03:49:59;;;;;;;8.65;2.65;;;;;;;8.73;100.00;100299.72;5068489;28;20637;-76
2022/04/17 03:52:27;;;;;;;5.47;4.25;;;;;;;8.69;100.00;100292.72;5070077;28;20285;-78
2022/04/17 03:54:54;;;;;;;9.10;3.17;;;;;;;8.57;100.00;100285.53;5070028;28;20610;-77
2022/04/17 03:57:21;;;;;;;4.55;2.80;;;;;;;8.48;100.00;100298.22;5069639;28;20678;-76
2022/04/17 03:59:48;;;;;;;2.97;2.78;;;;;;;8.59;100.00;100311.44;5069927;28;20198;-76
2022/04/17 04:02:15;;;;;;;5.25;3.45;;;;;;;8.52;100.00;100304.34;5070156;28;20210;-76
2022/04/17 04:04:41;;;;;;;9.02;3.10;;;;;;;8.41;100.00;100306.63;5069916;28;20205;-76
2022/04/17 04:07:08;;;;;;;4.75;3.78;;;;;;;8.15;100.00;100303.31;5069903;28;20199;-76
2022/04/17 04:09:36;;;;;;;6.93;3.15;;;;;;;8.05;100.00;100295.25;5069778;28;20214;-77
2022/04/17 04:12:05;;;;;;;4.78;3.22;;;;;;;7.93;100.00;100298.34;5070022;28;20206;-77
2022/04/17 04:14:31;;;;;;;3.53;3.33;;;;;;;7.85;100.00;100294.66;5034243;28;20237;-77
2022/04/17 04:17:00;;;;;;;8.63;4.85;;;;;;;7.92;100.00;100291.44;5070095;28;20222;-76
2022/04/17 04:19:27;;;;;;;3.72;3.42;;;;;;;7.74;100.00;100280.59;5018267;28;20671;-77
2022/04/17 04:21:53;;;;;;;4.80;4.40;;;;;;;7.66;100.00;100264.00;5018230;28;20202;-77
2022/04/17 04:24:20;;;;;;;4.78;3.40;;;;;;;7.83;100.00;100273.09;5070182;28;20601;-77
2022/04/17 04:28:33;;;;;;;5.70;4.15;;;;;;;7.66;100.00;100289.81;5069562;28;20191;-77
2022/04/17 04:29:36;;;;;;;11.40;4.72;;;;;;;7.78;100.00;100279.81;5069758;28;20194;-76
2022/04/17 04:32:04;;;;;;;5.00;4.60;;;;;;;7.54;100.00;100274.81;5070045;28;20256;-77
2022/04/17 04:34:31;;;;;;;3.85;3.55;;;;;;;7.60;100.00;100267.25;5069794;28;20229;-77
2022/04/17 04:36:58;;;;;;;4.13;3.83;;;;;;;7.69;100.00;100274.41;5069477;28;20234;-77
2022/04/17 04:39:25;;;;;;;9.05;4.57;;;;;;;7.66;100.00;100271.75;5070177;28;20199;-77
2022/04/17 04:41:53;;;;;;;4.15;3.72;;;;;;;7.61;100.00;100261.28;5069789;28;20203;-77
2022/04/17 04:44:19;;;;;;;12.70;6.57;;;;;;;7.63;100.00;100266.50;5069713;28;20612;-76
2022/04/17 04:46:45;;;;;;;3.90;3.53;;;;;;;7.44;100.00;100268.53;5069544;28;20199;-78
2022/04/17 04:49:30;;;;;;;9.05;4.15;;;;;;;7.48;100.00;100264.34;5069771;28;20277;-77
2022/04/17 04:51:58;;;;;;;9.20;4.25;;;;;;;7.31;100.00;100270.69;5069671;28;20336;-78
2022/04/17 04:54:25;;;;;;;5.80;4.57;;;;;;;7.35;100.00;100265.66;5069601;28;20230;-77
2022/04/17 04:56:53;;;;;;;7.93;5.60;;;;;;;6.92;100.00;100239.38;5069847;28;20231;-76
2022/04/17 04:59:20;;;;;;;23.33;5.95;;;;;;;7.23;100.00;100273.03;5069626;28;20716;-77
2022/04/17 05:01:48;;;;;;;11.35;4.75;;;;;;;7.15;100.00;100251.28;5069076;28;20297;-77
2022/04/17 05:04:15;;;;;;;5.75;5.10;;;;;;;7.26;100.00;100249.03;5036785;28;20230;-77
2022/04/17 05:06:42;;;;;;;8.95;5.32;;;;;;;7.35;100.00;100272.50;5073212;28;20230;-77
2022/04/17 05:09:09;;;;;;;5.93;4.78;;;;;;;7.24;100.00;100259.28;5073281;28;20690;-77
2022/04/17 05:11:38;;;;;;;6.80;4.82;;;;;;;7.25;100.00;100261.03;5073247;28;20199;-76
2022/04/17 05:14:09;;;;;;;7.25;5.40;;;;;;;7.12;100.00;100246.03;5073332;28;20199;-77
2022/04/17 05:16:36;;;;;;;6.07;5.03;;;;;;;7.14;100.00;100246.94;5073217;28;20218;-76
2022/04/17 05:19:20;;;;;;;9.88;7.32;;;;;;;7.30;100.00;100267.22;5072545;28;20237;-76
2022/04/17 05:21:47;;;;;;;8.20;6.07;;;;;;;7.15;100.00;100237.50;5073040;28;20675;-77
2022/04/17 05:24:15;;;;;;;7.05;4.65;;;;;;;7.09;100.00;100251.09;5073325;28;20210;-77
2022/04/17 05:26:42;;;;;;;8.00;6.65;;;;;;;6.87;100.00;100256.38;5072866;28;20569;-77
2022/04/17 05:29:11;;;;;;;5.32;4.68;;;;;;;7.01;100.00;100255.13;5072303;28;20194;-77
2022/04/17 05:31:37;;;;;;;6.07;5.13;;;;;;;6.86;100.00;100240.03;5017474;28;20734;-77
2022/04/17 05:34:04;;;;;;;6.13;4.50;;;;;;;7.10;100.00;100260.56;5070476;28;20226;-79
2022/04/17 05:36:31;;;;;;;6.50;4.63;;;;;;;7.04;100.00;100265.53;5072819;28;20706;-79
2022/04/17 05:38:58;;;;;;;3.40;3.10;;;;;;;6.92;100.00;100257.44;5059976;28;20202;-78
2022/04/17 05:41:26;;;;;;;13.52;7.40;;;;;;;7.61;100.00;100250.97;5073066;28;20195;-79
2022/04/17 05:43:56;;;;;;;7.15;6.25;;;;;;;6.89;100.00;100249.56;5073135;28;20213;-79
2022/04/17 05:46:25;;;;;;;4.03;3.22;;;;;;;6.87;100.00;100261.53;5072596;28;20203;-77
2022/04/17 05:48:52;;;;;;;5.43;4.78;;;;;;;6.78;100.00;100250.91;5072544;28;20195;-80
2022/04/17 05:51:19;;;;;;;6.93;5.35;;;;;;;6.87;100.00;100235.78;5020304;28;20206;-78
2022/04/17 05:53:46;;;;;;;4.70;3.05;;;;;;;6.36;100.00;100163.69;5071910;28;20257;-77
2022/04/17 05:56:12;;;;;;;9.18;4.20;;;;;;;6.81;100.00;100251.91;5072005;28;20203;-79
2022/04/17 05:58:39;;;;;;;6.15;4.55;;;;;;;6.41;100.00;100177.63;5072214;28;20199;-78
2022/04/17 06:01:06;;;;;;;4.45;3.83;;;;;;;6.89;100.00;100257.31;5072251;28;20212;-79
2022/04/17 06:03:34;;;;;;;4.72;4.00;;;;;;;6.84;100.00;100256.28;5072138;28;20248;-78
2022/04/17 06:06:01;;;;;;;7.30;5.40;;;;;;;6.66;100.00;100266.00;5072138;28;20198;-76
2022/04/17 06:08:28;;;;;;;6.90;3.97;;;;;;;6.71;100.00;100262.72;5072261;28;20210;-78
2022/04/17 06:10:55;;;;;;;6.13;3.77;;;;;;;6.74;100.00;100260.25;5071649;28;20223;-78
2022/04/17 06:13:21;;;;;;;5.65;5.13;;;;;;;6.73;100.00;100257.66;5071679;28;20652;-78
2022/04/17 06:15:48;;;;;;;6.10;5.22;;;;;;;6.62;100.00;100248.69;5071616;28;20260;-77
2022/04/17 06:18:15;;;;;;;3.67;3.30;;;;;;;6.85;100.00;100264.06;5071891;28;20219;-77
2022/04/17 06:20:43;;;;;;;3.20;2.97;;;;;;;6.85;100.00;100260.59;5071942;28;20202;-76
2022/04/17 06:23:10;;;;;;;5.37;4.53;;;;;;;6.90;100.00;100287.41;5071938;28;20209;-76
2022/04/17 06:25:37;;;;;;;5.10;4.70;;;;;;;6.80;100.00;100275.06;5071721;28;20268;-79
2022/04/17 06:28:04;;;;;;;4.65;4.22;;;;;;;6.68;100.00;100277.22;5071484;28;20207;-77
2022/04/17 06:30:30;;;;;;;6.47;5.07;;;;;;;6.71;100.00;100282.47;5019857;28;20209;-76
2022/04/17 06:32:57;;;;;;;4.60;3.90;;;;;;;6.59;100.00;100285.53;5071377;28;20644;-75
2022/04/17 06:35:24;;;;;;;7.10;4.03;;;;;;;6.78;100.00;100281.84;5076701;28;20237;-75
2022/04/17 06:37:54;;;;;;;7.20;4.13;;;;;;;6.63;100.00;100245.28;5075867;28;20230;-75
2022/04/17 06:40:22;;;;;;;5.13;4.60;;;;;;;6.76;100.00;100286.09;5035938;28;20195;-75
2022/04/17 06:42:49;;;;;;;5.50;4.30;;;;;;;6.77;100.00;100285.25;5071401;28;20260;-75
2022/04/17 06:45:16;;;;;;;4.13;3.83;;;;;;;6.82;100.00;100289.72;5070884;28;20203;-76
2022/04/17 06:47:44;;;;;;;4.97;4.10;;;;;;;6.68;100.00;100269.47;5071366;28;20203;-77
2022/04/17 06:50:11;;;;;;;4.70;4.30;;;;;;;6.84;100.00;100292.38;5070639;28;20205;-76
2022/04/17 06:52:38;;;;;;;4.40;3.47;;;;;;;6.74;100.00;100282.59;5070207;28;20211;-76
2022/04/17 06:55:11;;;;;;;3.37;2.80;;;;;;;6.69;100.00;100286.69;5071421;28;20206;-77
2022/04/17 06:57:40;;;;;;;3.53;3.22;;;;;;;6.55;100.00;100285.34;5071542;28;20219;-80
2022/04/17 07:00:09;;;;;;;3.53;3.23;;;;;;;6.66;100.00;100307.22;5071226;28;20234;-79
2022/04/17 07:02:36;;;;;;;4.70;3.85;;;;;;;6.67;100.00;100283.22;5070846;28;20256;-78
2022/04/17 07:05:03;;;;;;;5.53;4.33;;;;;;;6.76;100.00;100298.97;5070764;28;20194;-78
2022/04/17 07:07:29;;;;;;;3.67;3.37;;;;;;;6.41;100.00;100278.03;5018778;28;20675;-78
2022/04/17 07:09:56;;;;;;;4.60;4.20;;;;;;;6.57;100.00;100286.28;5070570;28;20202;-77
2022/04/17 07:12:24;;;;;;;7.60;4.37;;;;;;;6.76;100.00;100307.56;5071396;28;20202;-77
2022/04/17 07:14:51;;;;;;;5.78;4.15;;;;;;;6.79;100.00;100309.38;5071859;28;20209;-78
2022/04/17 07:17:19;;;;;;;6.18;5.03;;;;;;;6.89;100.00;100314.00;5071262;28;20261;-76
2022/04/17 07:19:45;;;;;;;6.60;4.37;;;;;;;6.77;100.00;100300.72;5070315;28;20216;-78
2022/04/17 07:22:13;;;;;;;4.63;4.23;;;;;;;6.82;100.00;100312.03;5071362;28;20203;-78
2022/04/17 07:24:40;;;;;;;3.90;3.60;;;;;;;6.93;100.00;100306.44;5071046;28;20598;-77
2022/04/17 07:27:09;;;;;;;5.17;4.23;;;;;;;6.79;100.00;100296.47;5070263;28;20674;-79
2022/04/17 07:29:37;;;;;;;6.97;5.50;;;;;;;6.95;100.00;100311.66;5066395;28;20797;-76
2022/04/17 07:32:04;;;;;;;6.57;4.30;;;;;;;6.68;100.00;100279.78;5081353;28;20268;-76
2022/04/17 07:34:31;;;;;;;9.17;7.13;;;;;;;7.03;100.00;100309.31;5067567;28;20234;-76
2022/04/17 07:36:58;;;;;;;6.43;4.10;;;;;;;6.90;100.00;100308.91;5069950;28;20928;-76
2022/04/17 07:39:24;;;;;;;8.73;4.07;;;;;;;6.85;100.00;100310.44;5069393;28;20202;-78
2022/04/17 07:41:51;;;;;;;5.03;4.47;;;;;;;6.70;100.00;100309.06;5069484;28;20264;-77
2022/04/17 07:44:18;;;;;;;5.33;4.83;;;;;;;6.66;100.00;100292.63;5068847;28;20305;-76
2022/04/17 07:46:46;;;;;;;4.33;4.00;;;;;;;6.74;100.00;100321.25;5069173;28;20199;-77
2022/04/17 07:49:13;;;;;;;3.83;3.40;;;;;;;6.72;100.00;100308.28;5068745;28;20194;-78
2022/04/17 07:51:40;;;;;;;5.80;4.67;;;;;;;6.67;100.00;100312.41;5069959;28;20207;-78
2022/04/17 07:54:06;;;;;;;5.03;4.03;;;;;;;6.75;100.00;100310.97;5069971;28;20202;-77
2022/04/17 07:56:33;;;;;;;5.57;3.80;;;;;;;6.58;100.00;100318.94;5070641;28;20203;-78
2022/04/17 07:59:00;;;;;;;6.77;5.93;;;;;;;6.79;100.00;100329.97;5070320;28;20234;-76
2022/04/17 08:01:27;;;;;;;7.57;4.60;;;;;;;6.74;100.00;100318.66;5070045;28;20209;-77
2022/04/17 08:03:55;;;;;;;14.50;6.70;;;;;;;7.66;100.00;100316.50;5070733;28;20229;-81
2022/04/17 08:06:22;;;;;;;9.95;6.85;;;;;;;7.18;100.00;100336.47;5070518;28;20203;-75
2022/04/17 08:08:51;;;;;;;4.07;3.35;;;;;;;6.78;100.00;100323.94;5070057;28;20209;-76
2022/04/17 08:11:19;;;;;;;6.05;4.90;;;;;;;6.85;100.00;100330.19;5070506;28;20663;-76
2022/04/17 08:13:46;;;;;;;5.57;5.10;;;;;;;6.67;100.00;100293.53;5070275;28;20234;-78
2022/04/17 08:16:14;;;;;;;19.03;8.73;;;;;;;6.94;100.00;100307.31;5050711;28;20654;-78
2022/04/17 08:18:41;;;;;;;3.60;3.40;;;;;;;6.91;100.00;100335.56;5050591;28;20628;-78
2022/04/17 08:21:10;;;;;;;5.30;4.80;;;;;;;6.96;100.00;100329.72;5068711;28;20302;-77
2022/04/17 08:23:37;;;;;;;3.93;3.63;;;;;;;6.86;100.00;100329.38;5068271;28;20258;-77
2022/04/17 08:26:05;;;;;;;4.97;4.57;;;;;;;6.81;100.00;100347.25;5068478;28;20199;-78
2022/04/17 08:28:32;;;;;;;6.93;5.07;;;;;;;6.61;100.00;100337.06;5068833;28;20206;-77
2022/04/17 08:30:58;;;;;;;5.03;4.63;;;;;;;6.49;100.00;100333.25;5031693;28;20207;-76
2022/04/17 08:33:26;;;;;;;5.30;3.80;;;;;;;6.44;100.00;100339.97;5069974;28;20203;-77
2022/04/17 08:35:53;;;;;;;4.33;3.50;;;;;;;6.26;100.00;100321.28;5069535;28;20577;-77
2022/04/17 08:38:22;;;;;;;4.73;4.33;;;;;;;6.44;100.00;100327.09;5072490;28;20223;-76
2022/04/17 08:40:49;;;;;;;3.67;3.47;;;;;;;6.35;100.00;100326.75;5018472;28;20190;-78
2022/04/17 08:43:19;;;;;;;4.07;3.67;;;;;;;6.38;100.00;100321.72;5070861;28;20306;-76
2022/04/17 08:45:49;;;;;;;4.13;3.53;;;;;;;6.58;100.00;100330.13;5072814;28;20233;-77
2022/04/17 08:48:17;;;;;;;5.23;3.63;;;;;;;6.40;100.00;100332.94;5072755;28;20256;-76
2022/04/17 08:50:46;;;;;;;4.90;4.37;;;;;;;6.39;100.00;100331.19;5072344;28;20300;-77
2022/04/17 08:53:16;;;;;;;7.33;4.13;;;;;;;6.48;100.00;100334.09;5021529;28;20193;-77
2022/04/17 08:55:45;;;;;;;3.50;2.67;;;;;;;6.44;100.00;100327.09;5092053;28;20233;-77
2022/04/17 08:58:12;;;;;;;4.47;4.17;;;;;;;6.32;100.00;100300.88;5075361;28;20218;-78
2022/04/17 09:00:39;;;;;;;3.83;3.53;;;;;;;6.38;100.00;100347.47;5071648;28;20237;-76
2022/04/17 09:03:09;;;;;;;3.27;3.00;;;;;;;6.40;100.00;100345.81;5066745;28;20198;-76
2022/04/17 09:05:37;;;;;;;3.87;3.50;;;;;;;6.57;100.00;100332.63;5072807;28;20280;-79
2022/04/17 09:08:13;;;;;;;5.32;4.20;;;;;;;6.73;100.00;100332.38;5070129;28;20234;-76
2022/04/17 09:10:40;;;;;;;4.67;3.70;;;;;;;6.38;100.00;100337.19;5073445;28;20281;-78
2022/04/17 09:13:09;;;;;;;3.07;2.80;;;;;;;6.53;100.00;100323.09;5073093;28;20218;-77
2022/04/17 09:15:37;;;;;;;3.20;2.90;;;;;;;6.49;100.00;100325.53;5072794;28;20203;-77
2022/04/17 09:18:07;;;;;;;3.43;3.13;;;;;;;6.63;100.00;100328.59;5073221;28;20238;-78
2022/04/17 09:20:34;;;;;;;4.13;3.73;;;;;;;6.41;100.00;100326.97;5078999;28;20202;-77
2022/04/17 09:23:02;;;;;;;2.90;2.60;;;;;;;5.84;100.00;100256.25;5048357;28;20194;-78
2022/04/17 09:25:30;;;;;;;2.73;2.53;;;;;;;6.35;100.00;100297.56;5080366;28;20294;-77
2022/04/17 09:27:58;;;;;;;6.43;3.50;;;;;;;6.38;100.00;100342.31;5070790;28;20195;-77
2022/04/17 09:30:28;;;;;;;3.67;3.47;;;;;;;5.85;100.00;100244.25;5062388;28;20199;-76
2022/04/17 09:32:56;;;;;;;3.87;3.57;;;;;;;6.07;100.00;100318.84;5060210;28;20192;-76
2022/04/17 09:35:24;;;;;;;2.80;2.60;;;;;;;6.09;100.00;100342.09;5062111;28;20267;-77
2022/04/17 09:37:55;;;;;;;3.50;3.20;;;;;;;6.34;100.00;100345.59;5072221;28;20246;-77
2022/04/17 09:40:23;;;;;;;2.57;2.40;;;;;;;5.60;100.00;100247.59;5073123;28;20292;-76
2022/04/17 09:42:50;;;;;;;3.63;3.33;;;;;;;6.17;100.00;100349.25;5072883;28;20203;-76
2022/04/17 09:45:17;;;;;;;3.70;3.40;;;;;;;6.28;100.00;100340.22;5072845;28;20206;-76
2022/04/17 09:47:57;;;;;;;4.73;3.13;;;;;;;6.17;100.00;100343.25;5072145;28;20203;-76
2022/04/17 09:50:32;;;;;;;3.50;3.20;;;;;;;6.08;100.00;100341.19;5072450;28;20284;-78
2022/04/17 09:53:05;;;;;;;4.33;3.93;;;;;;;6.16;100.00;100339.78;5072136;28;20273;-77
2022/04/17 09:55:38;;;;;;;5.70;3.00;;;;;;;5.94;100.00;100316.66;5072150;28;20198;-84
2022/04/17 09:58:05;;;;;;;4.83;3.23;;;;;;;5.91;100.00;100331.97;5072471;28;20237;-75
2022/04/17 10:00:42;;;;;;;3.23;3.03;;;;;;;5.79;100.00;100339.19;5072550;28;20302;-78
2022/04/17 10:03:11;;;;;;;3.30;2.10;;;;;;;5.93;100.00;100345.78;5072440;28;20314;-79
2022/04/17 10:05:39;;;;;;;5.63;3.93;;;;;;;6.09;100.00;100348.09;5072020;28;20195;-79
2022/04/17 10:08:10;;;;;;;2.90;2.70;;;;;;;5.87;100.00;100328.41;5070617;28;20667;-77
2022/04/17 10:10:38;;;;;;;3.97;3.60;;;;;;;5.85;100.00;100347.16;5072079;28;20198;-78
2022/04/17 10:13:06;;;;;;;5.13;3.93;;;;;;;6.07;100.00;100357.44;5020469;28;20713;-78
2022/04/17 10:15:33;;;;;;;103.17;41.60;;;;;;;5.75;100.00;100350.19;5072603;28;20199;-79
2022/04/17 10:18:03;;;;;;;3.40;2.50;;;;;;;5.89;100.00;100359.34;5072673;28;20613;-78
2022/04/17 10:20:31;;;;;;;4.77;3.60;;;;;;;5.78;100.00;100355.47;5072009;28;20238;-76
2022/04/17 10:23:05;;;;;;;4.23;3.83;;;;;;;5.78;100.00;100365.75;5071644;28;20590;-77
2022/04/17 10:25:33;;;;;;;5.97;4.73;;;;;;;5.68;100.00;100312.19;5072798;28;20207;-81
2022/04/17 10:28:06;;;;;;;2.90;2.63;;;;;;;5.78;100.00;100355.47;5080406;28;20193;-78
2022/04/17 10:30:52;;;;;;;4.23;3.63;;;;;;;5.53;100.00;100348.47;5034968;28;20198;-78
2022/04/17 10:33:47;;;;;;;2.30;2.10;;;;;;;5.71;100.00;100356.03;5062344;28;20260;-76
2022/04/17 10:36:50;;;;;;;3.00;2.70;;;;;;;5.75;100.00;100345.03;5061681;28;20571;-77
2022/04/17 10:39:21;;;;;;;2.80;2.60;;;;;;;5.82;100.00;100337.63;4980344;28;20245;-76
2022/04/17 10:41:50;;;;;;;3.23;2.87;;;;;;;6.06;100.00;100327.41;4922467;28;20278;-77
2022/04/17 10:44:17;;;;;;;2.83;2.63;;;;;;;5.95;100.00;100310.69;4970606;28;20272;-77
2022/04/17 10:46:48;;;;;;;3.23;2.93;;;;;;;6.08;100.00;100324.88;4970541;28;20210;-76
2022/04/17 10:49:18;;;;;;;3.50;2.77;;;;;;;6.01;100.00;100328.94;4951442;29;20224;-76
2022/04/17 10:51:53;;;;;;;3.60;3.40;;;;;;;5.87;100.00;100319.81;4959484;28;20234;-76
2022/04/17 10:54:20;;;;;;;3.23;3.00;;;;;;;5.70;100.00;100264.25;4967372;28;20322;-76
2022/04/17 10:57:01;;;;;;;4.40;3.37;;;;;;;6.10;100.00;100308.66;4969814;28;20224;-76
2022/04/17 10:59:30;;;;;;;2.60;2.40;;;;;;;6.12;100.00;100317.31;4952321;28;20250;-78
2022/04/17 11:02:03;;;;;;;4.40;2.43;;;;;;;6.09;100.00;100312.06;4968089;28;20194;-76
2022/04/17 11:04:32;;;;;;;4.80;3.17;;;;;;;6.02;100.00;100289.50;4969258;28;20206;-80
2022/04/17 11:07:21;;;;;;;4.37;3.03;;;;;;;5.81;100.00;100310.16;4970349;28;20260;-77
2022/04/17 11:09:48;;;;;;;2.50;2.40;;;;;;;5.60;100.00;100273.31;4916195;29;20220;-77
2022/04/17 11:12:26;;;;;;;4.00;3.10;;;;;;;6.07;100.00;100305.09;4913039;29;20216;-83
2022/04/17 11:14:55;;;;;;;3.10;2.83;;;;;;;6.06;100.00;100263.06;4928745;28;20284;-82
2022/04/17 11:17:22;;;;;;;2.80;2.60;;;;;;;6.09;100.00;100306.94;5010753;28;20240;-86
2022/04/17 11:19:50;;;;;;;4.43;2.60;;;;;;;5.97;100.00;100285.88;5015816;28;20224;-83
2022/04/17 11:22:17;;;;;;;2.17;2.07;;;;;;;6.02;100.00;100294.66;5010218;28;20910;-81
2022/04/17 11:25:07;;;;;;;2.00;1.90;;;;;;;6.06;100.00;100275.94;5008926;28;20209;-76
2022/04/17 11:27:41;;;;;;;4.43;2.87;;;;;;;5.76;100.00;100282.47;5008745;28;20208;-76
2022/04/17 11:30:09;;;;;;;8.10;3.57;;;;;;;5.77;100.00;100308.28;4976315;28;20200;-76
2022/04/17 11:32:52;;;;;;;4.97;2.93;;;;;;;5.81;100.00;100206.38;5008921;28;20216;-78
2022/04/17 11:35:26;;;;;;;7.40;3.33;;;;;;;5.94;100.00;100283.19;5008885;28;20379;-78